Time;durP1;ratioP1;P1;durP2;ratioP2;P2;SDS_P1;SDS_P2;PMS_P1;PMS_P2;Temp;Humidity;BMP_temperature;BMP_pressure;BME280_temperature;BME280_humidity;BME280_pressure;Samples;Min_cycle;Max_cycle;Signal;HPM_P1;HPM_P2
2023/01/24 00:01:26;;;;;;;29.48;14.20;;;7.30;85.70;;;;;;7366138;19;20019;-74
2023/01/24 00:03:54;;;;;;;35.00;15.15;;;7.30;85.80;;;;;;7368360;19;20024;-74
2023/01/24 00:06:23;;;;;;;30.25;15.43;;;7.30;85.80;;;;;;7361022;19;20081;-73
2023/01/24 00:08:52;;;;;;;32.28;16.23;;;7.30;85.90;;;;;;7364527;19;20019;-73
2023/01/24 00:11:20;;;;;;;31.55;13.77;;;7.30;85.90;;;;;;7361604;19;20029;-73
2023/01/24 00:13:49;;;;;;;29.80;15.25;;;7.40;85.50;;;;;;7378385;19;20576;-73
2023/01/24 00:16:22;;;;;;;37.50;16.88;;;7.30;86.00;;;;;;7359581;19;20018;-75
2023/01/24 00:18:52;;;;;;;33.22;14.90;;;7.30;86.10;;;;;;7362349;19;20018;-75
2023/01/24 00:21:22;;;;;;;29.02;13.93;;;7.20;86.00;;;;;;7361441;19;20019;-73
2023/01/24 00:23:55;;;;;;;30.67;14.98;;;7.30;86.10;;;;;;7364538;19;20028;-74
2023/01/24 00:26:25;;;;;;;33.47;15.35;;;7.10;87.00;;;;;;7357779;19;20024;-74
2023/01/24 00:28:54;;;;;;;31.48;14.90;;;7.10;86.50;;;;;;7386098;19;20014;-74
2023/01/24 00:31:26;;;;;;;30.85;14.93;;;7.00;86.40;;;;;;7360407;19;20011;-74
2023/01/24 00:33:54;;;;;;;33.97;15.65;;;7.10;86.60;;;;;;7361293;19;20737;-74
2023/01/24 00:36:23;;;;;;;40.45;16.75;;;7.10;86.40;;;;;;7359168;19;20022;-74
2023/01/24 00:38:52;;;;;;;30.20;15.48;;;7.00;87.10;;;;;;7364000;19;20078;-74
2023/01/24 00:41:20;;;;;;;35.55;16.58;;;7.10;86.90;;;;;;7361548;19;20450;-75
2023/01/24 00:43:49;;;;;;;43.45;18.55;;;7.20;87.00;;;;;;7384003;19;20021;-75
2023/01/24 00:46:18;;;;;;;38.30;18.33;;;7.30;86.70;;;;;;7358873;19;20015;-74
2023/01/24 00:48:49;;;;;;;36.40;17.05;;;7.30;86.70;;;;;;7365338;19;20018;-74
2023/01/24 00:51:17;;;;;;;;;;;7.20;86.60;;;;;;7364294;19;20082;-74
2023/01/24 00:53:46;;;;;;;33.58;15.63;;;7.20;86.70;;;;;;7361919;19;19917;-75
2023/01/24 00:56:15;;;;;;;37.55;17.95;;;7.00;87.20;;;;;;7359705;19;20105;-73
2023/01/24 00:58:44;;;;;;;35.78;16.10;;;7.10;87.60;;;;;;7386235;19;20828;-73
2023/01/24 01:01:12;;;;;;;39.97;17.75;;;7.10;87.20;;;;;;7360267;19;20010;-73
2023/01/24 01:03:41;;;;;;;38.03;17.90;;;7.00;87.40;;;;;;7360100;19;20350;-73
2023/01/24 01:06:16;;;;;;;38.22;17.52;;;7.10;87.50;;;;;;7361125;19;20401;-73
2023/01/24 01:08:45;;;;;;;43.50;19.05;;;7.10;87.70;;;;;;7361448;19;20094;-73
2023/01/24 01:11:13;;;;;;;41.25;17.35;;;7.20;87.60;;;;;;7371000;19;20046;-73
2023/01/24 01:13:42;;;;;;;42.58;17.73;;;7.30;87.50;;;;;;7366104;19;20018;-73
2023/01/24 01:16:16;;;;;;;46.40;19.95;;;7.30;87.40;;;;;;7395173;19;20021;-73
2023/01/24 01:18:45;;;;;;;45.97;18.95;;;7.30;87.30;;;;;;7370968;19;20026;-73
2023/01/24 01:21:20;;;;;;;41.35;18.52;;;7.30;87.20;;;;;;7373200;19;20030;-73
2023/01/24 01:23:49;;;;;;;39.67;17.85;;;7.10;87.10;;;;;;7375672;19;20452;-72
2023/01/24 01:26:19;;;;;;;41.75;18.70;;;7.20;87.40;;;;;;7374475;19;20074;-73
2023/01/24 01:28:48;;;;;;;40.10;18.73;;;7.20;87.50;;;;;;7372794;19;20035;-73
2023/01/24 01:31:18;;;;;;;39.70;17.77;;;7.30;87.60;;;;;;7395063;19;20026;-73
2023/01/24 01:33:47;;;;;;;38.58;18.05;;;7.10;88.00;;;;;;7372389;19;20028;-73
2023/01/24 01:36:18;;;;;;;42.47;18.90;;;6.90;87.80;;;;;;7374019;19;20014;-74
2023/01/24 01:38:46;;;;;;;43.13;18.85;;;7.00;88.40;;;;;;7375118;19;20021;-73
2023/01/24 01:41:16;;;;;;;46.45;19.40;;;7.10;88.20;;;;;;7372868;19;20464;-73
2023/01/24 01:46:28;;;;;;;44.75;19.45;;;7.20;88.00;;;;;;7370339;19;20011;-74
2023/01/24 01:49:00;;;;;;;44.05;19.73;;;7.20;87.90;;;;;;7394591;19;20444;-73
2023/01/24 01:51:38;;;;;;;42.42;18.63;;;7.30;87.70;;;;;;7372323;19;20015;-73
2023/01/24 01:54:11;;;;;;;41.30;18.38;;;7.30;87.90;;;;;;7373490;19;20022;-73
2023/01/24 01:56:44;;;;;;;43.60;20.00;;;7.00;87.80;;;;;;7374442;19;20015;-73
2023/01/24 01:59:20;;;;;;;41.45;18.90;;;7.10;88.00;;;;;;7373913;19;20015;-73
2023/01/24 02:01:50;;;;;;;42.38;19.45;;;7.10;88.10;;;;;;7370976;19;20010;-72
2023/01/24 02:04:21;;;;;;;37.47;17.98;;;7.10;88.00;;;;;;7396695;19;20010;-73
2023/01/24 02:06:58;;;;;;;42.83;18.80;;;7.10;88.00;;;;;;7372906;19;20364;-73
2023/01/24 02:09:31;;;;;;;43.67;19.25;;;7.00;88.10;;;;;;7373852;19;20011;-73
2023/01/24 02:12:05;;;;;;;43.13;19.25;;;7.10;88.10;;;;;;7371525;19;20014;-73
2023/01/24 02:17:19;;;;;;;51.08;20.90;;;7.20;88.10;;;;;;7373166;19;20329;-73
2023/01/24 02:19:58;;;;;;;53.35;21.30;;;7.20;88.00;;;;;;7373591;19;20021;-73
2023/01/24 02:22:40;;;;;;;51.10;21.70;;;7.20;88.00;;;;;;7372046;19;20021;-74
2023/01/24 02:25:17;;;;;;;46.42;21.35;;;7.10;88.40;;;;;;7394795;19;20094;-73
2023/01/24 02:27:49;;;;;;;47.35;19.88;;;7.10;88.70;;;;;;7371983;19;20082;-74
2023/01/24 02:30:17;;;;;;;46.65;21.90;;;7.20;88.40;;;;;;7372034;19;20350;-74
2023/01/24 02:32:46;;;;;;;47.92;20.83;;;7.20;88.30;;;;;;7372598;19;20022;-74
2023/01/24 02:35:26;;;;;;;46.10;20.90;;;7.30;88.30;;;;;;7369777;19;20129;-74
2023/01/24 02:37:56;;;;;;;39.28;17.58;;;7.00;88.10;;;;;;7372520;19;20029;-74
2023/01/24 02:40:26;;;;;;;52.63;22.85;;;6.80;88.50;;;;;;7371238;19;20026;-74
2023/01/24 02:43:02;;;;;;;49.22;21.90;;;6.90;89.60;;;;;;7391173;19;20686;-74
2023/01/24 02:45:32;;;;;;;48.90;22.23;;;6.90;89.30;;;;;;7371943;19;20082;-74
2023/01/24 02:48:01;;;;;;;48.77;21.67;;;6.90;89.20;;;;;;7372569;19;20015;-73
2023/01/24 02:53:29;;;;;;;44.35;20.95;;;7.00;88.80;;;;;;7371836;19;20018;-73
2023/01/24 02:53:30;;;;;;;47.53;21.50;;;7.00;88.60;;;;;;7370479;19;20460;-74
2023/01/24 02:58:43;;;;;;;;;;;6.90;88.40;;;;;;7373968;19;20085;-74
2023/01/24 03:01:12;;;;;;;41.28;18.40;;;6.90;88.50;;;;;;7390579;19;20002;-73
2023/01/24 03:03:40;;;;;;;48.35;21.65;;;6.80;88.80;;;;;;7370697;19;20022;-74
2023/01/24 03:06:10;;;;;;;44.58;20.60;;;6.70;88.80;;;;;;7371662;19;20019;-74
2023/01/24 03:08:40;;;;;;;49.83;22.63;;;6.80;89.10;;;;;;7371382;19;20018;-74
2023/01/24 03:11:09;;;;;;;47.58;20.08;;;6.80;88.90;;;;;;7370972;19;20085;-74
2023/01/24 03:35:13;;;;;;;40.47;18.55;;;6.60;88.20;;;;;;7371849;19;20011;-73
2023/01/24 03:40:22;;;;;;;44.85;20.33;;;6.80;88.10;;;;;;7379757;19;20015;-74
2023/01/24 03:42:51;;;;;;;45.00;20.73;;;6.90;88.00;;;;;;7387020;19;20398;-73
2023/01/24 03:45:23;;;;;;;48.80;21.08;;;6.90;87.90;;;;;;7367553;19;20024;-74
2023/01/24 03:47:59;;;;;;;43.55;19.33;;;6.90;87.70;;;;;;7369216;19;20457;-74
2023/01/24 03:53:11;;;;;;;43.25;19.65;;;6.80;87.20;;;;;;7366719;19;20018;-74
2023/01/24 03:55:41;;;;;;;41.15;20.27;;;6.70;87.70;;;;;;7367477;19;20026;-74
2023/01/24 03:58:10;;;;;;;43.60;20.70;;;6.90;88.10;;;;;;7386904;19;20018;-74
2023/01/24 04:00:40;;;;;;;47.30;22.35;;;6.80;87.70;;;;;;7366057;19;20014;-74
2023/01/24 04:03:12;;;;;;;47.95;21.50;;;6.90;88.00;;;;;;7368338;19;20472;-74
2023/01/24 04:05:40;;;;;;;53.00;22.65;;;6.90;87.70;;;;;;7366426;19;20015;-74
2023/01/24 04:08:12;;;;;;;51.05;22.17;;;7.00;87.90;;;;;;7368170;19;20015;-74
2023/01/24 04:10:41;;;;;;;47.20;22.45;;;7.00;87.80;;;;;;7366008;19;20030;-74
2023/01/24 04:13:11;;;;;;;52.28;22.67;;;7.10;87.70;;;;;;7385566;19;20837;-74
2023/01/24 04:15:40;;;;;;;49.80;22.60;;;7.10;87.50;;;;;;7365183;19;20019;-74
2023/01/24 04:18:12;;;;;;;51.58;21.13;;;7.10;87.50;;;;;;7366367;19;20614;-74
2023/01/24 04:20:40;;;;;;;51.15;22.10;;;7.10;87.40;;;;;;7368375;19;20014;-74
2023/01/24 04:23:11;;;;;;;54.40;22.80;;;7.10;87.50;;;;;;7370649;19;20113;-74
2023/01/24 04:25:39;;;;;;;54.53;23.48;;;7.20;87.60;;;;;;7369372;19;20466;-74
2023/01/24 04:28:08;;;;;;;48.22;22.23;;;7.20;87.50;;;;;;7390537;19;20029;-74
2023/01/24 04:30:37;;;;;;;56.15;23.95;;;7.20;87.30;;;;;;7367219;19;20046;-74
2023/01/24 04:33:05;;;;;;;47.53;23.05;;;7.20;87.30;;;;;;7367863;19;20018;-74
2023/01/24 04:35:37;;;;;;;52.60;23.80;;;7.20;87.30;;;;;;7364874;19;20111;-74
2023/01/24 04:38:07;;;;;;;53.15;22.95;;;7.30;87.90;;;;;;7368910;19;20006;-74
2023/01/24 04:40:35;;;;;;;52.00;22.52;;;7.00;87.20;;;;;;7367997;19;20098;-74
2023/01/24 04:43:04;;;;;;;51.22;22.73;;;7.20;87.50;;;;;;7391675;19;20073;-74
2023/01/24 04:45:33;;;;;;;55.92;25.42;;;7.20;87.30;;;;;;7375542;19;20098;-74
2023/01/24 04:48:01;;;;;;;53.67;24.52;;;7.20;87.00;;;;;;7377225;19;20025;-74
2023/01/24 04:50:30;;;;;;;49.95;22.70;;;7.20;87.10;;;;;;7375829;19;20093;-73
2023/01/24 04:53:01;;;;;;;57.95;24.17;;;7.00;87.20;;;;;;7372700;19;20006;-74
2023/01/24 04:55:30;;;;;;;55.60;23.10;;;7.10;87.50;;;;;;7375284;19;20452;-73
2023/01/24 04:57:59;;;;;;;48.65;22.88;;;7.10;87.80;;;;;;7395841;19;20015;-74
2023/01/24 05:00:28;;;;;;;54.55;24.30;;;7.10;87.50;;;;;;7372386;19;20327;-74
2023/01/24 05:02:56;;;;;;;58.53;25.02;;;7.20;87.50;;;;;;7376159;19;20019;-74
2023/01/24 05:05:25;;;;;;;54.65;24.40;;;7.20;87.50;;;;;;7373971;19;20014;-74
2023/01/24 05:07:54;;;;;;;57.35;25.20;;;7.30;87.50;;;;;;7373705;19;20017;-74
2023/01/24 05:10:25;;;;;;;54.03;23.25;;;7.30;88.30;;;;;;7384134;19;20015;-74
2023/01/24 05:12:54;;;;;;;51.47;22.58;;;7.30;87.30;;;;;;7395646;19;20029;-74
2023/01/24 05:15:22;;;;;;;49.53;22.35;;;7.30;86.90;;;;;;7372963;19;20085;-74
2023/01/24 05:17:51;;;;;;;49.85;20.80;;;7.20;87.20;;;;;;7375612;19;20025;-74
2023/01/24 05:20:20;;;;;;;48.17;22.08;;;6.90;87.50;;;;;;7374617;19;20446;-74
2023/01/24 05:22:49;;;;;;;53.53;22.80;;;6.90;88.90;;;;;;7375056;19;20101;-73
2023/01/24 05:25:18;;;;;;;52.25;22.45;;;7.00;88.40;;;;;;7394420;19;20018;-73
2023/01/24 05:27:50;;;;;;;50.35;22.17;;;6.90;88.40;;;;;;7373253;19;20081;-74
2023/01/24 05:30:19;;;;;;;46.40;22.00;;;6.90;88.50;;;;;;7373584;19;20017;-74
2023/01/24 05:32:48;;;;;;;53.55;23.52;;;6.90;88.40;;;;;;7370620;19;20021;-74
2023/01/24 05:35:16;;;;;;;46.15;20.58;;;7.00;88.50;;;;;;7375243;19;20025;-74
2023/01/24 05:37:45;;;;;;;45.17;21.50;;;7.00;88.10;;;;;;7375145;19;20070;-74
2023/01/24 05:40:14;;;;;;;49.40;21.52;;;7.10;88.10;;;;;;7397081;19;20059;-74
2023/01/24 05:42:43;;;;;;;48.03;21.70;;;7.00;88.30;;;;;;7372258;19;20018;-74
2023/01/24 05:45:15;;;;;;;44.78;20.42;;;7.00;88.40;;;;;;7370198;19;20041;-74
2023/01/24 05:47:44;;;;;;;50.30;22.13;;;7.10;89.00;;;;;;7373107;19;20022;-74
2023/01/24 05:50:13;;;;;;;50.20;22.35;;;7.10;89.30;;;;;;7371723;19;20474;-75
2023/01/24 05:52:42;;;;;;;48.75;23.52;;;7.10;88.90;;;;;;7371295;19;20016;-74
2023/01/24 05:55:11;;;;;;;46.22;22.10;;;7.00;88.80;;;;;;7392386;19;20078;-74
2023/01/24 05:57:39;;;;;;;51.30;20.77;;;7.10;88.80;;;;;;7372735;19;20015;-74
2023/01/24 06:00:10;;;;;;;46.25;21.88;;;7.10;88.80;;;;;;7373498;19;20085;-74
2023/01/24 06:02:41;;;;;;;52.13;21.80;;;7.10;90.30;;;;;;7373153;19;20098;-74
2023/01/24 06:05:10;;;;;;;43.20;20.25;;;7.10;89.90;;;;;;7370693;19;20024;-74
2023/01/24 06:07:39;;;;;;;48.80;20.73;;;7.10;89.80;;;;;;7371748;19;20041;-74
2023/01/24 06:10:08;;;;;;;41.38;19.42;;;7.10;89.40;;;;;;7395194;19;20022;-74
2023/01/24 06:12:37;;;;;;;273.52;25.98;;;7.20;89.60;;;;;;7372460;19;20081;-74
2023/01/24 06:15:07;;;;;;;140.43;24.13;;;7.20;89.90;;;;;;7374384;19;20125;-74
2023/01/24 06:17:35;;;;;;;41.20;20.48;;;7.10;90.60;;;;;;7374239;19;20085;-74
2023/01/24 06:20:08;;;;;;;44.88;20.48;;;7.20;90.10;;;;;;7373023;19;20027;-74
2023/01/24 06:22:46;;;;;;;43.83;19.52;;;7.10;90.00;;;;;;7371317;19;20022;-73
2023/01/24 06:25:22;;;;;;;39.33;19.17;;;7.10;89.70;;;;;;7395094;19;20093;-74
2023/01/24 06:27:51;;;;;;;43.58;20.25;;;7.10;89.20;;;;;;7373939;19;20014;-73
2023/01/24 06:30:22;;;;;;;48.00;20.75;;;7.20;89.30;;;;;;7370366;19;20019;-74
2023/01/24 06:33:13;;;;;;;50.47;22.60;;;7.20;88.80;;;;;;7371804;19;20018;-73
2023/01/24 06:35:57;;;;;;;54.60;22.35;;;7.20;88.60;;;;;;7370813;19;20263;-74
2023/01/24 06:38:27;;;;;;;47.45;21.92;;;7.00;88.40;;;;;;7371537;19;20031;-74
2023/01/24 06:40:59;;;;;;;48.45;22.20;;;7.00;88.70;;;;;;7371943;19;20014;-74
2023/01/24 06:43:29;;;;;;;47.45;22.63;;;7.10;88.60;;;;;;7372183;19;20018;-74
2023/01/24 06:46:01;;;;;;;47.63;22.85;;;7.10;88.50;;;;;;7393426;19;20022;-74
2023/01/24 06:48:29;;;;;;;47.00;21.40;;;7.20;88.60;;;;;;7371747;19;20015;-74
2023/01/24 06:51:02;;;;;;;91.00;25.02;;;7.20;88.50;;;;;;7370470;19;20014;-74
2023/01/24 06:53:30;;;;;;;51.88;23.95;;;7.10;89.80;;;;;;7372527;19;20083;-74
2023/01/24 06:56:03;;;;;;;52.63;23.88;;;7.10;89.60;;;;;;7371907;19;20804;-74
2023/01/24 06:58:31;;;;;;;53.97;24.95;;;7.20;89.00;;;;;;7370557;19;20090;-74
2023/01/24 07:01:00;;;;;;;51.13;25.25;;;7.20;88.60;;;;;;7390012;19;20030;-74
2023/01/24 07:03:29;;;;;;;57.90;25.55;;;6.90;88.70;;;;;;7369235;19;20026;-74
2023/01/24 07:06:00;;;;;;;48.72;23.85;;;6.90;89.20;;;;;;7371232;19;20118;-74
2023/01/24 07:08:28;;;;;;;;;;;6.90;89.60;;;;;;7372841;19;20021;-74
2023/01/24 07:10:59;;;;;;;48.45;22.45;;;7.00;89.60;;;;;;7370208;19;20302;-74
2023/01/24 07:13:28;;;;;;;54.25;24.27;;;6.90;89.00;;;;;;7368384;19;20473;-74
2023/01/24 07:15:57;;;;;;;51.70;22.85;;;6.90;89.00;;;;;;7391743;19;20023;-74
2023/01/24 07:18:26;;;;;;;51.80;24.25;;;6.90;89.10;;;;;;7369128;19;20082;-74
2023/01/24 07:20:55;;;;;;;50.45;23.02;;;6.80;89.40;;;;;;7371076;19;20319;-74
2023/01/24 07:23:32;;;;;;;61.22;25.52;;;6.70;90.00;;;;;;7369935;19;20037;-74
2023/01/24 07:26:03;;;;;;;65.65;25.83;;;6.70;90.00;;;;;;7371947;19;20011;-74
2023/01/24 07:28:31;;;;;;;58.10;24.10;;;6.70;90.00;;;;;;7370898;19;20019;-74
2023/01/24 07:31:00;;;;;;;56.22;25.67;;;6.90;90.10;;;;;;7391025;19;20022;-74
2023/01/24 07:33:28;;;;;;;58.33;25.48;;;6.80;89.90;;;;;;7370966;19;20017;-74
2023/01/24 07:35:57;;;;;;;57.45;26.55;;;6.80;90.00;;;;;;7370822;19;20024;-74
2023/01/24 07:38:29;;;;;;;63.88;27.58;;;6.90;90.00;;;;;;7369971;19;20026;-74
2023/01/24 07:40:57;;;;;;;;;;;6.80;89.90;;;;;;7368793;19;20022;-74
2023/01/24 07:43:26;;;;;;;63.53;27.40;;;7.00;90.00;;;;;;7368554;19;19923;-75
2023/01/24 07:45:55;;;;;;;67.47;27.35;;;7.00;89.90;;;;;;7384904;19;20101;-75
2023/01/24 07:48:23;;;;;;;66.70;27.27;;;7.10;89.90;;;;;;7370302;19;20018;-74
2023/01/24 07:50:52;;;;;;;63.35;27.58;;;7.00;89.80;;;;;;7370065;19;20462;-74
2023/01/24 07:53:20;;;;;;;79.35;30.42;;;6.80;90.10;;;;;;7371157;19;20015;-75
2023/01/24 07:55:52;;;;;;;69.63;29.70;;;6.80;90.30;;;;;;7369604;19;20674;-74
2023/01/24 07:58:20;;;;;;;67.18;29.65;;;6.90;90.40;;;;;;7388307;19;20117;-74
2023/01/24 08:00:49;;;;;;;189.25;35.03;;;6.80;91.00;;;;;;7364014;19;20556;-74
2023/01/24 08:03:18;;;;;;;204.95;34.90;;;6.70;91.50;;;;;;7369750;19;20018;-74
2023/01/24 08:05:47;;;;;;;67.03;27.95;;;6.70;91.50;;;;;;7369386;19;20449;-75
2023/01/24 08:08:16;;;;;;;69.65;29.25;;;6.60;91.30;;;;;;7368343;19;20031;-74
2023/01/24 08:10:46;;;;;;;67.55;28.77;;;6.30;91.20;;;;;;7366916;19;20025;-74
2023/01/24 08:13:18;;;;;;;69.85;31.52;;;6.40;91.30;;;;;;7391291;19;20010;-75
2023/01/24 08:15:46;;;;;;;71.28;31.85;;;6.40;91.30;;;;;;7367770;19;20018;-74
2023/01/24 08:18:15;;;;;;;71.10;31.02;;;6.50;91.20;;;;;;7367021;19;20021;-74
2023/01/24 08:20:44;;;;;;;76.38;31.50;;;6.60;91.10;;;;;;7369076;19;20086;-74
2023/01/24 08:23:12;;;;;;;81.47;31.98;;;6.70;91.00;;;;;;7368117;19;20052;-75
2023/01/24 08:25:41;;;;;;;102.97;32.70;;;6.80;91.00;;;;;;7369550;19;20018;-75
2023/01/24 08:28:10;;;;;;;70.78;30.63;;;7.00;90.90;;;;;;7391925;19;20018;-74
2023/01/24 08:30:41;;;;;;;68.32;29.40;;;7.10;90.80;;;;;;7368571;19;20015;-74
2023/01/24 08:33:17;;;;;;;65.53;28.58;;;7.00;90.50;;;;;;7369941;19;20106;-75
2023/01/24 08:35:46;;;;;;;70.18;29.80;;;7.10;90.30;;;;;;7368592;19;20039;-74
2023/01/24 08:38:15;;;;;;;70.03;28.38;;;7.10;90.30;;;;;;7369337;19;20021;-74
2023/01/24 08:40:44;;;;;;;82.35;32.72;;;6.80;90.40;;;;;;7369405;19;20027;-74
2023/01/24 08:43:13;;;;;;;71.47;31.13;;;6.70;90.70;;;;;;7389699;19;20597;-75
2023/01/24 08:45:44;;;;;;;73.45;31.38;;;6.90;90.90;;;;;;7369808;19;20014;-75
2023/01/24 08:48:13;;;;;;;77.45;30.42;;;6.50;91.70;;;;;;7368528;19;20021;-75
2023/01/24 08:50:42;;;;;;;71.90;30.08;;;6.60;91.30;;;;;;7368630;19;20126;-75
2023/01/24 08:53:10;;;;;;;68.30;29.70;;;6.80;90.90;;;;;;7368480;19;20015;-74
2023/01/24 08:55:39;;;;;;;68.90;28.92;;;6.80;90.90;;;;;;7364840;19;20015;-74
2023/01/24 08:58:07;;;;;;;58.00;26.05;;;7.00;90.70;;;;;;7388738;19;20018;-74
2023/01/24 09:00:36;;;;;;;68.28;30.17;;;6.90;90.50;;;;;;7369102;19;20148;-76
2023/01/24 09:03:07;;;;;;;76.63;30.75;;;6.90;90.70;;;;;;7368710;19;20688;-75
2023/01/24 09:05:36;;;;;;;68.32;29.30;;;7.00;90.60;;;;;;7367389;19;20451;-74
2023/01/24 09:08:05;;;;;;;65.90;29.20;;;7.10;90.50;;;;;;7369224;19;20660;-75
2023/01/24 09:10:33;;;;;;;73.13;32.13;;;7.20;90.50;;;;;;7369248;19;20445;-75
2023/01/24 09:13:03;;;;;;;79.35;32.55;;;7.20;90.30;;;;;;7389354;19;20121;-75
2023/01/24 09:15:32;;;;;;;71.82;32.03;;;7.30;90.40;;;;;;7364767;19;20058;-74
2023/01/24 09:18:03;;;;;;;65.13;29.42;;;7.30;90.30;;;;;;7367180;19;20470;-74
2023/01/24 09:20:34;;;;;;;70.45;30.30;;;7.30;90.00;;;;;;7368425;19;20021;-75
2023/01/24 09:23:11;;;;;;;68.20;28.08;;;7.20;90.10;;;;;;7366952;19;20450;-74
2023/01/24 09:25:40;;;;;;;69.07;30.20;;;7.20;90.10;;;;;;7368267;19;20019;-75
2023/01/24 09:28:09;;;;;;;82.10;32.55;;;7.20;90.20;;;;;;7387664;19;20086;-74
2023/01/24 09:30:38;;;;;;;74.90;32.08;;;7.30;90.20;;;;;;7369183;19;20014;-75
2023/01/24 09:33:07;;;;;;;73.35;32.22;;;7.30;90.60;;;;;;7373719;19;20626;-74
2023/01/24 09:35:38;;;;;;;72.22;30.77;;;7.30;90.20;;;;;;7372872;19;20023;-74
2023/01/24 09:38:07;;;;;;;73.60;30.20;;;7.30;90.20;;;;;;7374434;19;20019;-74
2023/01/24 09:40:49;;;;;;;75.60;31.70;;;7.30;90.10;;;;;;7372124;19;20481;-75
2023/01/24 09:43:29;;;;;;;81.03;31.20;;;7.30;90.10;;;;;;7393025;19;20438;-74
2023/01/24 09:46:06;;;;;;;72.22;29.92;;;7.30;90.10;;;;;;7372134;19;20086;-75
2023/01/24 09:48:38;;;;;;;73.30;29.23;;;7.40;90.10;;;;;;7372048;19;20010;-73
2023/01/24 09:51:17;;;;;;;69.63;31.33;;;7.40;90.00;;;;;;7373022;19;20050;-74
2023/01/24 09:53:49;;;;;;;70.82;30.02;;;7.40;90.10;;;;;;7373152;19;20530;-73
2023/01/24 09:56:30;;;;;;;74.43;30.27;;;7.40;90.10;;;;;;7373253;19;20018;-74
2023/01/24 09:59:12;;;;;;;70.20;30.13;;;7.40;90.10;;;;;;7373593;19;20780;-74
2023/01/24 10:01:42;;;;;;;75.72;30.63;;;7.50;90.10;;;;;;7373665;19;20777;-74
2023/01/24 10:04:18;;;;;;;73.28;30.95;;;7.50;90.00;;;;;;7395648;19;20350;-73
2023/01/24 10:07:18;;;;;;;74.28;30.00;;;7.50;89.70;;;;;;7374630;19;20074;-73
2023/01/24 10:09:59;;;;;;;76.18;30.23;;;7.40;89.80;;;;;;7372854;19;20070;-74
2023/01/24 10:12:43;;;;;;;77.43;32.33;;;7.50;90.10;;;;;;7371727;19;20565;-74
2023/01/24 10:15:32;;;;;;;75.35;31.63;;;7.50;90.10;;;;;;7364892;19;20060;-73
2023/01/24 10:18:27;;;;;;;82.18;30.23;;;7.60;90.10;;;;;;7371604;19;20127;-74
2023/01/24 10:21:33;;;;;;;76.03;29.33;;;7.60;90.00;;;;;;7370713;19;20025;-74
2023/01/24 10:24:10;;;;;;;80.68;30.27;;;7.70;90.00;;;;;;7370319;19;20033;-74
2023/01/24 10:26:46;;;;;;;74.72;27.02;;;7.60;89.80;;;;;;7370446;19;20022;-74
2023/01/24 10:29:19;;;;;;;75.75;28.67;;;7.40;89.70;;;;;;7370904;19;20029;-74
2023/01/24 10:31:57;;;;;;;66.80;28.95;;;7.50;90.20;;;;;;7369730;19;20010;-74
2023/01/24 10:34:34;;;;;;;69.60;28.98;;;7.50;90.90;;;;;;7372997;19;20102;-74
2023/01/24 10:37:08;;;;;;;71.68;29.17;;;7.40;90.80;;;;;;7395405;19;20014;-75
2023/01/24 10:39:40;;;;;;;69.38;28.23;;;7.40;90.90;;;;;;7372584;19;20714;-74
2023/01/24 10:42:20;;;;;;;59.25;25.88;;;7.30;90.70;;;;;;7371080;19;20950;-75
2023/01/24 10:44:50;;;;;;;66.38;27.30;;;7.30;90.50;;;;;;7371876;19;20022;-74
2023/01/24 10:47:46;;;;;;;64.57;28.20;;;7.40;90.50;;;;;;7374366;19;20081;-74
2023/01/24 10:50:17;;;;;;;63.50;27.48;;;7.40;90.20;;;;;;7370144;19;20437;-74
2023/01/24 10:52:48;;;;;;;61.88;27.15;;;7.50;90.20;;;;;;7371639;19;20014;-74
2023/01/24 10:55:36;;;;;;;111.30;31.17;;;7.60;90.40;;;;;;7393746;19;20014;-73
2023/01/24 10:58:06;;;;;;;63.42;29.15;;;7.70;90.60;;;;;;7378013;19;20018;-74
2023/01/24 11:00:37;;;;;;;67.82;27.88;;;7.80;90.40;;;;;;7371490;19;20018;-74
2023/01/24 11:03:10;;;;;;;;;;;7.80;90.40;;;;;;7371884;19;20056;-74
2023/01/24 11:05:44;;;;;;;66.10;26.75;;;7.70;89.80;;;;;;7371094;19;20461;-75
2023/01/24 11:08:21;;;;;;;64.22;27.35;;;7.70;89.90;;;;;;7373350;19;20581;-74
2023/01/24 11:10:54;;;;;;;74.43;27.52;;;7.80;90.00;;;;;;7371493;19;20095;-75
2023/01/24 11:13:38;;;;;;;63.92;27.80;;;7.70;90.40;;;;;;7383846;19;20422;-76
2023/01/24 11:16:09;;;;;;;67.30;27.38;;;7.70;90.60;;;;;;7394843;19;20025;-75
2023/01/24 11:18:38;;;;;;;61.03;26.63;;;7.80;90.80;;;;;;7371640;19;20081;-76
2023/01/24 11:21:09;;;;;;;67.32;28.23;;;7.90;90.60;;;;;;7370672;19;20045;-76
2023/01/24 11:23:38;;;;;;;60.13;27.08;;;7.90;90.40;;;;;;7371588;19;20094;-77
2023/01/24 11:26:24;;;;;;;58.97;25.65;;;7.90;90.20;;;;;;7372346;19;20122;-78
2023/01/24 11:29:00;;;;;;;53.45;25.00;;;7.80;90.10;;;;;;7362703;19;20018;-77
2023/01/24 11:31:35;;;;;;;62.53;26.50;;;7.90;90.00;;;;;;7387608;19;20082;-77
2023/01/24 11:34:37;;;;;;;59.13;25.13;;;7.90;89.60;;;;;;7347094;19;20054;-78
2023/01/24 11:37:25;;;;;;;49.50;22.80;;;7.80;89.80;;;;;;7363015;19;20022;-79
2023/01/24 11:40:04;;;;;;;61.70;25.38;;;7.70;89.80;;;;;;7363212;19;20018;-79
2023/01/24 11:42:41;;;;;;;59.13;26.02;;;7.40;90.40;;;;;;7366475;19;20026;-79
2023/01/24 11:45:45;;;;;;;62.67;26.20;;;7.40;90.50;;;;;;7388063;19;20058;-83
2023/01/24 11:48:21;;;;;;;65.20;25.63;;;7.40;90.60;;;;;;7371154;19;20082;-79
2023/01/24 11:51:00;;;;;;;58.72;24.75;;;7.50;90.50;;;;;;7349723;19;20303;-83
2023/01/24 11:53:49;;;;;;;57.40;26.42;;;7.60;90.30;;;;;;7374827;19;20027;-92
2023/01/24 11:56:29;;;;;;;63.22;25.65;;;7.60;90.20;;;;;;7385993;19;20085;-77
2023/01/24 11:59:15;;;;;;;62.80;24.55;;;7.60;90.30;;;;;;7369538;19;20508;-79
2023/01/24 12:01:55;;;;;;;58.63;25.58;;;7.60;90.10;;;;;;7370134;19;20124;-77
2023/01/24 12:04:59;;;;;;;57.55;26.80;;;7.70;90.20;;;;;;7368813;19;20023;-77
2023/01/24 12:07:38;;;;;;;64.60;24.20;;;7.80;90.10;;;;;;7369735;19;20021;-76
2023/01/24 12:10:20;;;;;;;61.88;25.73;;;7.80;90.00;;;;;;7392125;19;20016;-76
2023/01/24 12:12:59;;;;;;;56.97;25.23;;;7.90;90.10;;;;;;7369271;19;20010;-77
2023/01/24 12:15:41;;;;;;;55.92;24.88;;;7.80;90.20;;;;;;7369318;19;20024;-76
2023/01/24 12:18:31;;;;;;;56.15;24.65;;;7.90;90.20;;;;;;7369116;19;20026;-77
2023/01/24 12:21:01;;;;;;;50.65;21.80;;;8.00;90.10;;;;;;7370219;19;20081;-77
2023/01/24 12:23:38;;;;;;;62.03;24.63;;;8.00;89.30;;;;;;7370083;19;20037;-76
2023/01/24 12:26:14;;;;;;;61.80;24.20;;;7.90;89.70;;;;;;7369249;19;20093;-75
2023/01/24 12:28:51;;;;;;;55.10;23.63;;;7.90;89.90;;;;;;7369837;19;20018;-76
2023/01/24 12:31:30;;;;;;;57.25;24.95;;;8.00;89.90;;;;;;7390329;19;20107;-77
2023/01/24 12:34:03;;;;;;;56.47;24.02;;;8.00;89.80;;;;;;7368823;19;20018;-78
2023/01/24 12:36:42;;;;;;;66.88;24.67;;;8.20;90.00;;;;;;7366846;19;20020;-77
2023/01/24 12:39:17;;;;;;;52.50;23.00;;;8.20;89.40;;;;;;7368347;19;20359;-77
2023/01/24 12:41:50;;;;;;;53.53;23.00;;;8.00;89.10;;;;;;7370148;19;20021;-78
2023/01/24 12:44:28;;;;;;;50.55;24.20;;;8.10;89.70;;;;;;7367706;19;20022;-78
2023/01/24 12:47:23;;;;;;;52.17;23.15;;;8.00;90.00;;;;;;7368233;19;20018;-78
2023/01/24 12:50:04;;;;;;;51.35;22.20;;;8.00;90.10;;;;;;7369417;19;20021;-78
2023/01/24 12:52:40;;;;;;;58.72;20.75;;;8.10;90.00;;;;;;7368066;19;20018;-77
2023/01/24 12:55:16;;;;;;;51.50;21.73;;;8.10;89.60;;;;;;7389409;19;20014;-78
2023/01/24 12:57:49;;;;;;;58.22;22.65;;;8.10;89.60;;;;;;7367691;19;20033;-78
2023/01/24 13:00:22;;;;;;;47.97;22.70;;;8.10;89.60;;;;;;7367890;19;20014;-78
2023/01/24 13:03:22;;;;;;;52.10;22.90;;;8.10;89.70;;;;;;7367696;19;20100;-78
2023/01/24 13:05:58;;;;;;;51.20;23.02;;;8.10;89.70;;;;;;7372471;19;20025;-78
2023/01/24 13:08:37;;;;;;;56.13;23.30;;;8.20;89.80;;;;;;7375382;19;20438;-78
2023/01/24 13:11:19;;;;;;;50.92;22.60;;;8.30;90.10;;;;;;7373794;19;20028;-77
2023/01/24 13:13:54;;;;;;;60.55;24.05;;;8.30;90.10;;;;;;7376969;19;20021;-77
2023/01/24 13:16:58;;;;;;;51.22;23.20;;;8.40;90.00;;;;;;7373403;19;20011;-77
2023/01/24 13:19:45;;;;;;;53.75;23.33;;;8.30;89.50;;;;;;7374889;19;20025;-77
2023/01/24 13:22:39;;;;;;;51.47;22.60;;;8.40;89.40;;;;;;7395634;19;20022;-77
2023/01/24 13:25:24;;;;;;;51.72;22.98;;;8.10;89.60;;;;;;7374857;19;20078;-78
2023/01/24 13:28:04;;;;;;;56.50;22.52;;;8.20;90.00;;;;;;7372133;19;20021;-77
2023/01/24 13:30:40;;;;;;;54.45;24.33;;;8.30;90.00;;;;;;7372779;19;20098;-77
2023/01/24 13:33:16;;;;;;;55.58;24.50;;;8.30;89.80;;;;;;7371014;19;20473;-77
2023/01/24 13:35:53;;;;;;;54.08;24.48;;;8.30;89.70;;;;;;7370963;19;20321;-79
2023/01/24 13:38:25;;;;;;;64.53;25.50;;;8.30;89.90;;;;;;7370101;19;20019;-75
2023/01/24 13:41:06;;;;;;;60.38;25.17;;;8.40;89.70;;;;;;7374324;19;20466;-77
2023/01/24 13:44:00;;;;;;;65.85;26.20;;;8.40;89.70;;;;;;7368044;19;20101;-78